BZN191 KTUS-KABQ
Flight info
| Callsign | BZN191 |
|---|---|
| Flight time | 0h 47m |
| Altitude | 35000 |
| Route | WLDKT4 SSO J104 TMACK/N0458F340 KALSE BRRTO1 |
| Aircraft | B738/M-SDE2E3FGHIRWXY/LB1 |
Departure
| Time | 2026-04-24 01:48 |
|---|---|
| Airport | Tucson International Airport (KTUS) |
Arrival
| Time | 2026-04-24 02:36 |
|---|---|
| Airport | Albuquerque International Sunport (KABQ) |
| Time | Latitude | Longitude | Altitude | Speed | Heading |
|---|---|---|---|---|---|
| 2026-04-24 01:12 | 32.11991 | -110.93793 | 2605 ft | 0 kts | 101° |
| 2026-04-24 01:39 | 32.11991 | -110.93797 | 2605 ft | 3 kts | 101° |
| 2026-04-24 01:39 | 32.11996 | -110.93828 | 2605 ft | 4 kts | 101° |
| 2026-04-24 01:39 | 32.12001 | -110.93859 | 2605 ft | 4 kts | 101° |
| 2026-04-24 01:39 | 32.12006 | -110.93890 | 2604 ft | 4 kts | 101° |
| 2026-04-24 01:40 | 32.12007 | -110.93897 | 2604 ft | 1 kts | 101° |
| 2026-04-24 01:42 | 32.12004 | -110.93895 | 2604 ft | 1 kts | 143° |
| 2026-04-24 01:42 | 32.11983 | -110.93898 | 2604 ft | 7 kts | 186° |
| 2026-04-24 01:42 | 32.11914 | -110.93925 | 2603 ft | 11 kts | 216° |
| 2026-04-24 01:43 | 32.11865 | -110.93968 | 2604 ft | 8 kts | 192° |
| 2026-04-24 01:43 | 32.11816 | -110.93935 | 2603 ft | 9 kts | 136° |
| 2026-04-24 01:43 | 32.11759 | -110.93869 | 2602 ft | 14 kts | 135° |
| 2026-04-24 01:43 | 32.11678 | -110.93773 | 2604 ft | 18 kts | 135° |
| 2026-04-24 01:44 | 32.11580 | -110.93657 | 2605 ft | 22 kts | 135° |
| 2026-04-24 01:44 | 32.11463 | -110.93521 | 2608 ft | 24 kts | 135° |
| 2026-04-24 01:44 | 32.11335 | -110.93370 | 2608 ft | 28 kts | 135° |
| 2026-04-24 01:44 | 32.11189 | -110.93199 | 2607 ft | 31 kts | 136° |
| 2026-04-24 01:45 | 32.11053 | -110.93038 | 2605 ft | 23 kts | 135° |
| 2026-04-24 01:45 | 32.10933 | -110.92899 | 2604 ft | 26 kts | 135° |
| 2026-04-24 01:45 | 32.10844 | -110.92796 | 2607 ft | 27 kts | 135° |
| 2026-04-24 01:45 | 32.10733 | -110.92663 | 2608 ft | 12 kts | 135° |
| 2026-04-24 01:46 | 32.10688 | -110.92610 | 2609 ft | 15 kts | 135° |
| 2026-04-24 01:46 | 32.10609 | -110.92518 | 2611 ft | 17 kts | 135° |
| 2026-04-24 01:46 | 32.10513 | -110.92405 | 2610 ft | 22 kts | 135° |
| 2026-04-24 01:46 | 32.10389 | -110.92259 | 2609 ft | 10 kts | 137° |
| 2026-04-24 01:47 | 32.10340 | -110.92236 | 2608 ft | 13 kts | 180° |
| 2026-04-24 01:47 | 32.10259 | -110.92306 | 2608 ft | 16 kts | 245° |
| 2026-04-24 01:47 | 32.10275 | -110.92378 | 2609 ft | 0 kts | 313° |
| 2026-04-24 01:47 | 32.10293 | -110.92399 | 2609 ft | 22 kts | 314° |
| 2026-04-24 01:48 | 32.10579 | -110.92732 | 2610 ft | 93 kts | 315° |
| 2026-04-24 01:48 | 32.11188 | -110.93446 | 2610 ft | 151 kts | 314° |
| 2026-04-24 01:48 | 32.11983 | -110.94407 | 2990 ft | 169 kts | 314° |
| 2026-04-24 01:48 | 32.12795 | -110.95468 | 3516 ft | 180 kts | 308° |
| 2026-04-24 01:49 | 32.13574 | -110.96660 | 4133 ft | 184 kts | 304° |
| 2026-04-24 01:49 | 32.14264 | -110.97909 | 4837 ft | 179 kts | 301° |
| 2026-04-24 01:49 | 32.14870 | -110.99199 | 5470 ft | 180 kts | 296° |
| 2026-04-24 01:49 | 32.15459 | -111.00496 | 6044 ft | 182 kts | 297° |
| 2026-04-24 01:50 | 32.16125 | -111.01774 | 6638 ft | 184 kts | 301° |
| 2026-04-24 01:50 | 32.16847 | -111.03026 | 7213 ft | 185 kts | 301° |
| 2026-04-24 01:50 | 32.17785 | -111.04155 | 7391 ft | 206 kts | 326° |
| 2026-04-24 01:50 | 32.19036 | -111.05088 | 7496 ft | 220 kts | 320° |
| 2026-04-24 01:51 | 32.20303 | -111.06241 | 7667 ft | 244 kts | 327° |
| 2026-04-24 01:51 | 32.22032 | -111.06664 | 7830 ft | 278 kts | 4° |
| 2026-04-24 01:51 | 32.23857 | -111.05732 | 8301 ft | 299 kts | 38° |
| 2026-04-24 01:51 | 32.25355 | -111.03986 | 8958 ft | 305 kts | 42° |
| 2026-04-24 01:52 | 32.26909 | -111.02252 | 9616 ft | 309 kts | 40° |
| 2026-04-24 01:52 | 32.28526 | -111.00545 | 10304 ft | 314 kts | 39° |
| 2026-04-24 01:52 | 32.29993 | -110.98514 | 10477 ft | 342 kts | 62° |
| 2026-04-24 01:52 | 32.30614 | -110.95719 | 10732 ft | 362 kts | 84° |
| 2026-04-24 01:53 | 32.30829 | -110.92707 | 11195 ft | 372 kts | 86° |
| 2026-04-24 01:53 | 32.31006 | -110.89639 | 11867 ft | 376 kts | 86° |
| 2026-04-24 01:53 | 32.31185 | -110.86540 | 12600 ft | 379 kts | 86° |
| 2026-04-24 01:53 | 32.31376 | -110.83428 | 13282 ft | 382 kts | 85° |
| 2026-04-24 01:54 | 32.31581 | -110.80270 | 13902 ft | 389 kts | 85° |
| 2026-04-24 01:54 | 32.31800 | -110.77061 | 14582 ft | 394 kts | 85° |
| 2026-04-24 01:54 | 32.32025 | -110.73810 | 15264 ft | 398 kts | 85° |
| 2026-04-24 01:54 | 32.32254 | -110.70516 | 15884 ft | 405 kts | 85° |
| 2026-04-24 01:55 | 32.32486 | -110.67179 | 16538 ft | 410 kts | 85° |
| 2026-04-24 01:55 | 32.32719 | -110.63802 | 17179 ft | 414 kts | 85° |
| 2026-04-24 01:55 | 32.32954 | -110.60383 | 17806 ft | 419 kts | 85° |
| 2026-04-24 01:55 | 32.33144 | -110.56964 | 18379 ft | 425 kts | 89° |
| 2026-04-24 01:56 | 32.33102 | -110.53459 | 18950 ft | 429 kts | 94° |
| 2026-04-24 01:56 | 32.32931 | -110.49920 | 19569 ft | 432 kts | 95° |
| 2026-04-24 01:56 | 32.32721 | -110.46362 | 20180 ft | 435 kts | 95° |
| 2026-04-24 01:56 | 32.32510 | -110.42781 | 20733 ft | 439 kts | 95° |
| 2026-04-24 01:57 | 32.32313 | -110.39160 | 21282 ft | 443 kts | 95° |
| 2026-04-24 01:57 | 32.32129 | -110.35510 | 21809 ft | 447 kts | 94° |
| 2026-04-24 01:57 | 32.31956 | -110.31829 | 22315 ft | 451 kts | 94° |
| 2026-04-24 01:57 | 32.31789 | -110.28114 | 22827 ft | 454 kts | 94° |
| 2026-04-24 01:58 | 32.31624 | -110.24370 | 23325 ft | 457 kts | 94° |
| 2026-04-24 01:58 | 32.31461 | -110.20652 | 23790 ft | 460 kts | 94° |
| 2026-04-24 01:58 | 32.31293 | -110.16843 | 24239 ft | 464 kts | 94° |
| 2026-04-24 01:58 | 32.31120 | -110.13017 | 24676 ft | 468 kts | 94° |
| 2026-04-24 01:59 | 32.30945 | -110.09157 | 25089 ft | 472 kts | 94° |
| 2026-04-24 01:59 | 32.30768 | -110.05272 | 25451 ft | 477 kts | 94° |
| 2026-04-24 01:59 | 32.30587 | -110.01335 | 25812 ft | 480 kts | 95° |
| 2026-04-24 01:59 | 32.30403 | -109.97381 | 26151 ft | 485 kts | 95° |
| 2026-04-24 02:00 | 32.30216 | -109.93377 | 26479 ft | 489 kts | 95° |
| 2026-04-24 02:00 | 32.30027 | -109.89351 | 26838 ft | 492 kts | 95° |
| 2026-04-24 02:00 | 32.29851 | -109.85293 | 27172 ft | 497 kts | 92° |
| 2026-04-24 02:00 | 32.30292 | -109.81268 | 27227 ft | 508 kts | 71° |
| 2026-04-24 02:01 | 32.31841 | -109.77527 | 27491 ft | 506 kts | 52° |
| 2026-04-24 02:01 | 32.34133 | -109.74417 | 27900 ft | 496 kts | 36° |
| 2026-04-24 02:01 | 32.36811 | -109.72073 | 28765 ft | 467 kts | 28° |
| 2026-04-24 02:01 | 32.39481 | -109.69920 | 29336 ft | 467 kts | 27° |
| 2026-04-24 02:02 | 32.42211 | -109.67742 | 29359 ft | 478 kts | 27° |
| 2026-04-24 02:02 | 32.47824 | -109.63219 | 29498 ft | 498 kts | 28° |
| 2026-04-24 02:03 | 32.56561 | -109.56009 | 29801 ft | 518 kts | 29° |
| 2026-04-24 02:03 | 32.59528 | -109.53535 | 30045 ft | 521 kts | 29° |
| 2026-04-24 02:03 | 32.62492 | -109.51062 | 30343 ft | 522 kts | 29° |
| 2026-04-24 02:04 | 32.65463 | -109.48580 | 30706 ft | 521 kts | 29° |
| 2026-04-24 02:04 | 32.68419 | -109.46111 | 31123 ft | 519 kts | 28° |
| 2026-04-24 02:04 | 32.71371 | -109.43647 | 31474 ft | 519 kts | 28° |
| 2026-04-24 02:04 | 32.74325 | -109.41178 | 31784 ft | 520 kts | 28° |
| 2026-04-24 02:05 | 32.77285 | -109.38707 | 32097 ft | 520 kts | 28° |
| 2026-04-24 02:05 | 32.80245 | -109.36234 | 32402 ft | 520 kts | 28° |
| 2026-04-24 02:05 | 32.83207 | -109.33759 | 32738 ft | 520 kts | 27° |
| 2026-04-24 02:05 | 32.86160 | -109.31286 | 33139 ft | 518 kts | 27° |
| 2026-04-24 02:06 | 32.89102 | -109.28820 | 33493 ft | 516 kts | 27° |
| 2026-04-24 02:06 | 32.92037 | -109.26359 | 33764 ft | 517 kts | 27° |
| 2026-04-24 02:06 | 32.94974 | -109.23896 | 34012 ft | 517 kts | 27° |
| 2026-04-24 02:06 | 32.97921 | -109.21421 | 34341 ft | 516 kts | 27° |
| 2026-04-24 02:07 | 33.00852 | -109.18956 | 34689 ft | 515 kts | 27° |
| 2026-04-24 02:07 | 33.03762 | -109.16503 | 34973 ft | 515 kts | 27° |
| 2026-04-24 02:07 | 33.09662 | -109.11541 | 34973 ft | 520 kts | 27° |
| 2026-04-24 02:08 | 33.15544 | -109.06574 | 34967 ft | 515 kts | 27° |
| 2026-04-24 02:08 | 33.21336 | -109.01674 | 34977 ft | 512 kts | 27° |
| 2026-04-24 02:09 | 33.27139 | -108.96762 | 34983 ft | 511 kts | 27° |
| 2026-04-24 02:09 | 33.32938 | -108.91846 | 34999 ft | 510 kts | 27° |
| 2026-04-24 02:10 | 33.38729 | -108.86929 | 35008 ft | 510 kts | 27° |
| 2026-04-24 02:10 | 33.44508 | -108.82013 | 35024 ft | 511 kts | 28° |
| 2026-04-24 02:11 | 33.50310 | -108.77071 | 35033 ft | 512 kts | 28° |
| 2026-04-24 02:11 | 33.56118 | -108.72112 | 35034 ft | 512 kts | 28° |
| 2026-04-24 02:12 | 33.61925 | -108.67146 | 35042 ft | 513 kts | 28° |
| 2026-04-24 02:12 | 33.67745 | -108.62159 | 35046 ft | 514 kts | 28° |
| 2026-04-24 02:13 | 33.73521 | -108.57204 | 35047 ft | 514 kts | 28° |
| 2026-04-24 02:13 | 33.79352 | -108.52191 | 35045 ft | 514 kts | 28° |
| 2026-04-24 02:14 | 33.85166 | -108.47183 | 35050 ft | 513 kts | 28° |
| 2026-04-24 02:14 | 33.90965 | -108.42183 | 35056 ft | 513 kts | 28° |
| 2026-04-24 02:15 | 33.96749 | -108.37212 | 35064 ft | 512 kts | 28° |
| 2026-04-24 02:15 | 34.02568 | -108.32246 | 34545 ft | 517 kts | 28° |
| 2026-04-24 02:16 | 34.05506 | -108.29738 | 33906 ft | 516 kts | 29° |
| 2026-04-24 02:16 | 34.08439 | -108.27226 | 33225 ft | 516 kts | 29° |
| 2026-04-24 02:16 | 34.11363 | -108.24718 | 32524 ft | 516 kts | 29° |
| 2026-04-24 02:16 | 34.14296 | -108.22198 | 31797 ft | 516 kts | 30° |
| 2026-04-24 02:17 | 34.17223 | -108.19682 | 31036 ft | 517 kts | 30° |
| 2026-04-24 02:17 | 34.20153 | -108.17160 | 30305 ft | 518 kts | 30° |
| 2026-04-24 02:17 | 34.23070 | -108.14646 | 29772 ft | 512 kts | 30° |
| 2026-04-24 02:17 | 34.25960 | -108.12151 | 29195 ft | 508 kts | 30° |
| 2026-04-24 02:18 | 34.28829 | -108.09674 | 28641 ft | 504 kts | 30° |
| 2026-04-24 02:18 | 34.31678 | -108.07212 | 28072 ft | 500 kts | 30° |
| 2026-04-24 02:18 | 34.34491 | -108.04781 | 27516 ft | 495 kts | 30° |
| 2026-04-24 02:18 | 34.37277 | -108.02371 | 26950 ft | 490 kts | 30° |
| 2026-04-24 02:19 | 34.40007 | -108.00008 | 26398 ft | 485 kts | 30° |
| 2026-04-24 02:19 | 34.42735 | -107.97644 | 25883 ft | 477 kts | 30° |
| 2026-04-24 02:19 | 34.45354 | -107.95361 | 26000 ft | 438 kts | 29° |
| 2026-04-24 02:19 | 34.47698 | -107.93309 | 26333 ft | 404 kts | 28° |
| 2026-04-24 02:20 | 34.49877 | -107.91409 | 26450 ft | 379 kts | 28° |
| 2026-04-24 02:20 | 34.51983 | -107.89583 | 26260 ft | 365 kts | 27° |
| 2026-04-24 02:20 | 34.54067 | -107.87787 | 25361 ft | 377 kts | 28° |
| 2026-04-24 02:20 | 34.56288 | -107.85880 | 24087 ft | 404 kts | 28° |
| 2026-04-24 02:21 | 34.58646 | -107.83849 | 22880 ft | 425 kts | 29° |
| 2026-04-24 02:21 | 34.61007 | -107.81765 | 22792 ft | 414 kts | 32° |
| 2026-04-24 02:21 | 34.62978 | -107.79198 | 22419 ft | 421 kts | 53° |
| 2026-04-24 02:21 | 34.64372 | -107.76131 | 22044 ft | 420 kts | 59° |
| 2026-04-24 02:22 | 34.65679 | -107.73030 | 21617 ft | 417 kts | 60° |
| 2026-04-24 02:22 | 34.66951 | -107.69976 | 21195 ft | 415 kts | 60° |
| 2026-04-24 02:22 | 34.68257 | -107.66859 | 20774 ft | 412 kts | 59° |
| 2026-04-24 02:22 | 34.69561 | -107.63776 | 20348 ft | 409 kts | 59° |
| 2026-04-24 02:23 | 34.70865 | -107.60715 | 19924 ft | 406 kts | 59° |
| 2026-04-24 02:23 | 34.72166 | -107.57678 | 19501 ft | 403 kts | 59° |
| 2026-04-24 02:23 | 34.73442 | -107.54709 | 19092 ft | 400 kts | 59° |
| 2026-04-24 02:23 | 34.74727 | -107.51718 | 18676 ft | 398 kts | 59° |
| 2026-04-24 02:24 | 34.76003 | -107.48745 | 18281 ft | 394 kts | 60° |
| 2026-04-24 02:24 | 34.77267 | -107.45796 | 17880 ft | 392 kts | 60° |
| 2026-04-24 02:24 | 34.78521 | -107.42870 | 17473 ft | 389 kts | 60° |
| 2026-04-24 02:24 | 34.79765 | -107.39962 | 17066 ft | 386 kts | 60° |
| 2026-04-24 02:25 | 34.80997 | -107.37077 | 16661 ft | 383 kts | 60° |
| 2026-04-24 02:25 | 34.82219 | -107.34213 | 16261 ft | 380 kts | 60° |
| 2026-04-24 02:25 | 34.83438 | -107.31357 | 15852 ft | 378 kts | 60° |
| 2026-04-24 02:25 | 34.84642 | -107.28534 | 15451 ft | 375 kts | 60° |
| 2026-04-24 02:26 | 34.85821 | -107.25711 | 15051 ft | 373 kts | 61° |
| 2026-04-24 02:26 | 34.86981 | -107.22897 | 14661 ft | 370 kts | 61° |
| 2026-04-24 02:26 | 34.88123 | -107.20133 | 14508 ft | 359 kts | 61° |
| 2026-04-24 02:26 | 34.89222 | -107.17464 | 14343 ft | 351 kts | 61° |
| 2026-04-24 02:27 | 34.90123 | -107.14731 | 14107 ft | 347 kts | 78° |
| 2026-04-24 02:27 | 34.90472 | -107.11852 | 13883 ft | 341 kts | 81° |
| 2026-04-24 02:27 | 34.90786 | -107.08993 | 13545 ft | 340 kts | 81° |
| 2026-04-24 02:27 | 34.91102 | -107.06142 | 13220 ft | 338 kts | 81° |
| 2026-04-24 02:28 | 34.91422 | -107.03309 | 12871 ft | 337 kts | 81° |
| 2026-04-24 02:28 | 34.91748 | -107.00489 | 12532 ft | 336 kts | 81° |
| 2026-04-24 02:28 | 34.92077 | -106.97677 | 12184 ft | 334 kts | 81° |
| 2026-04-24 02:28 | 34.92402 | -106.94913 | 11832 ft | 333 kts | 81° |
| 2026-04-24 02:29 | 34.92736 | -106.92089 | 11488 ft | 332 kts | 81° |
| 2026-04-24 02:29 | 34.92953 | -106.90247 | 11252 ft | 331 kts | 80° |
| 2026-04-24 02:29 | 34.93384 | -106.86586 | 10809 ft | 327 kts | 80° |
| 2026-04-24 02:29 | 34.93702 | -106.83869 | 10672 ft | 319 kts | 80° |
| 2026-04-24 02:30 | 34.94013 | -106.81216 | 10514 ft | 312 kts | 80° |
| 2026-04-24 02:30 | 34.94316 | -106.78631 | 10384 ft | 304 kts | 80° |
| 2026-04-24 02:30 | 34.94513 | -106.76953 | 10283 ft | 299 kts | 80° |
| 2026-04-24 02:30 | 34.94804 | -106.74479 | 10159 ft | 291 kts | 79° |
| 2026-04-24 02:31 | 34.95084 | -106.72069 | 10035 ft | 283 kts | 79° |
| 2026-04-24 02:31 | 34.95311 | -106.69702 | 9807 ft | 281 kts | 84° |
| 2026-04-24 02:31 | 34.95397 | -106.67322 | 9538 ft | 281 kts | 86° |
| 2026-04-24 02:31 | 34.95464 | -106.64936 | 9255 ft | 281 kts | 86° |
| 2026-04-24 02:32 | 34.95498 | -106.62551 | 8963 ft | 282 kts | 87° |
| 2026-04-24 02:32 | 34.95530 | -106.60169 | 8653 ft | 279 kts | 86° |
| 2026-04-24 02:32 | 34.95590 | -106.57858 | 8345 ft | 272 kts | 81° |
| 2026-04-24 02:32 | 34.96043 | -106.55676 | 8017 ft | 261 kts | 62° |
| 2026-04-24 02:33 | 34.97021 | -106.53880 | 7724 ft | 250 kts | 43° |
| 2026-04-24 02:33 | 34.98361 | -106.52610 | 7465 ft | 234 kts | 26° |
| 2026-04-24 02:33 | 34.99769 | -106.51699 | 7176 ft | 225 kts | 26° |
| 2026-04-24 02:33 | 35.01108 | -106.50828 | 7017 ft | 208 kts | 19° |
| 2026-04-24 02:34 | 35.02478 | -106.50633 | 7002 ft | 201 kts | 345° |
| 2026-04-24 02:34 | 35.03643 | -106.51426 | 6981 ft | 185 kts | 312° |
| 2026-04-24 02:34 | 35.04259 | -106.52707 | 6929 ft | 174 kts | 292° |
| 2026-04-24 02:34 | 35.04534 | -106.54248 | 6135 ft | 196 kts | 273° |
| 2026-04-24 02:35 | 35.04395 | -106.55893 | 5703 ft | 191 kts | 266° |
| 2026-04-24 02:35 | 35.04373 | -106.57428 | 5414 ft | 171 kts | 276° |
| 2026-04-24 02:35 | 35.04403 | -106.58787 | 5316 ft | 154 kts | 274° |
| 2026-04-24 02:35 | 35.04430 | -106.60004 | 5314 ft | 122 kts | 270° |
| 2026-04-24 02:36 | 35.04428 | -106.60804 | 5314 ft | 69 kts | 270° |
| 2026-04-24 02:36 | 35.04430 | -106.61225 | 5317 ft | 23 kts | 269° |
| 2026-04-24 02:36 | 35.04450 | -106.61363 | 5314 ft | 11 kts | 319° |
| 2026-04-24 02:36 | 35.04512 | -106.61373 | 5316 ft | 3 kts | 358° |
| 2026-04-24 02:37 | 35.04523 | -106.61377 | 5320 ft | 5 kts | 340° |
| 2026-04-24 02:38 | 35.04557 | -106.61426 | 5316 ft | 1 kts | 303° |
| 2026-04-24 02:38 | 35.04564 | -106.61439 | 5312 ft | 5 kts | 303° |
| 2026-04-24 02:38 | 35.04595 | -106.61489 | 5320 ft | 10 kts | 316° |
| 2026-04-24 02:38 | 35.04648 | -106.61504 | 5320 ft | 5 kts | 18° |
| 2026-04-24 02:39 | 35.04674 | -106.61494 | 5320 ft | 5 kts | 12° |
| 2026-04-24 02:39 | 35.04685 | -106.61491 | 5317 ft | 0 kts | 11° |